Time;durP1;ratioP1;P1;durP2;ratioP2;P2;SDS_P1;SDS_P2;PMS_P1;PMS_P2;Temp;Humidity;BMP_temperature;BMP_pressure;BME280_temperature;BME280_humidity;BME280_pressure;Samples;Min_cycle;Max_cycle;Signal;HPM_P1;HPM_P2
2022/06/05 00:01:31;;;;;;;26.17;13.95;;;13.20;99.90;;;;;;5027597;28;20288;-72
2022/06/05 00:04:26;;;;;;;24.63;13.85;;;13.20;99.90;;;;;;5022597;28;21605;-72
2022/06/05 00:07:12;;;;;;;29.83;13.68;;;13.20;99.90;;;;;;5026682;28;20034;-72
2022/06/05 00:09:57;;;;;;;28.85;13.77;;;13.20;99.90;;;;;;5034585;28;20566;-72
2022/06/05 00:12:38;;;;;;;28.10;13.68;;;13.20;99.90;;;;;;5029060;28;20522;-72
2022/06/05 00:15:04;;;;;;;31.77;15.20;;;13.20;99.90;;;;;;5033773;28;20152;-72
2022/06/05 00:17:30;;;;;;;33.65;13.55;;;13.20;99.90;;;;;;5032604;28;20124;-73
2022/06/05 00:19:55;;;;;;;28.98;13.40;;;13.20;99.90;;;;;;5012671;28;20474;-73
2022/06/05 00:22:22;;;;;;;25.10;13.30;;;13.20;99.90;;;;;;5019418;28;20056;-72
2022/06/05 00:24:48;;;;;;;29.90;12.75;;;13.20;99.90;;;;;;5041295;28;20071;-72
2022/06/05 00:27:20;;;;;;;27.27;12.88;;;13.30;99.90;;;;;;5037426;28;20060;-72
2022/06/05 00:30:01;;;;;;;;;;;13.30;99.90;;;;;;5033993;28;19913;-73
2022/06/05 00:32:37;;;;;;;27.98;11.82;;;13.20;99.90;;;;;;5024483;28;20556;-72
2022/06/05 00:35:08;;;;;;;25.17;11.63;;;13.20;99.90;;;;;;5040931;28;20607;-72
2022/06/05 00:37:37;;;;;;;22.92;11.68;;;13.30;99.90;;;;;;5019892;28;20163;-70
2022/06/05 00:40:24;;;;;;;26.95;11.27;;;13.30;99.90;;;;;;5018658;28;20132;-71
2022/06/05 00:42:50;;;;;;;22.63;11.40;;;13.20;99.90;;;;;;5032183;28;20485;-72
2022/06/05 00:45:16;;;;;;;22.27;10.60;;;13.20;99.90;;;;;;5029952;28;20037;-72
2022/06/05 00:47:44;;;;;;;23.65;11.18;;;13.20;99.90;;;;;;5034765;28;20216;-72
2022/06/05 00:50:17;;;;;;;21.00;11.30;;;13.20;99.90;;;;;;5038666;28;20033;-72
2022/06/05 00:52:47;;;;;;;28.42;11.52;;;13.20;99.90;;;;;;5034724;28;20090;-72
2022/06/05 00:55:13;;;;;;;18.77;11.02;;;13.20;99.90;;;;;;5022928;28;20488;-72
2022/06/05 00:57:40;;;;;;;25.00;10.48;;;13.30;99.90;;;;;;5026769;28;20021;-72
2022/06/05 01:00:13;;;;;;;23.05;10.07;;;13.30;99.90;;;;;;5039597;28;20044;-72
2022/06/05 01:02:41;;;;;;;23.75;9.90;;;13.30;99.90;;;;;;5029225;28;20646;-72
2022/06/05 01:05:09;;;;;;;13.98;8.63;;;13.30;99.90;;;;;;5033335;28;20059;-73
2022/06/05 01:07:35;;;;;;;18.85;8.90;;;13.30;99.90;;;;;;5029038;28;20587;-72
2022/06/05 01:10:01;;;;;;;22.13;10.68;;;13.40;99.90;;;;;;5036891;28;20072;-72
2022/06/05 01:12:29;;;;;;;21.77;9.77;;;13.30;99.90;;;;;;5031723;28;20029;-72
2022/06/05 01:15:13;;;;;;;20.67;11.27;;;13.30;99.90;;;;;;5034376;28;20091;-72
2022/06/05 01:17:58;;;;;;;16.20;9.32;;;13.30;99.90;;;;;;5038778;28;20522;-73
2022/06/05 01:20:56;;;;;;;20.08;10.00;;;13.30;99.90;;;;;;5034883;28;20075;-72
2022/06/05 01:23:53;;;;;;;15.85;9.48;;;13.30;99.90;;;;;;5032100;28;20179;-73
2022/06/05 01:26:44;;;;;;;15.77;8.57;;;13.30;99.90;;;;;;5030980;28;20521;-72
2022/06/05 01:29:18;;;;;;;14.90;9.00;;;13.30;99.90;;;;;;5022539;28;20028;-72
2022/06/05 01:31:50;;;;;;;16.40;8.48;;;13.40;99.90;;;;;;5019942;28;20109;-72
2022/06/05 01:34:22;;;;;;;13.98;8.15;;;13.40;99.90;;;;;;5018505;28;20034;-72
2022/06/05 01:37:14;;;;;;;18.13;8.63;;;13.40;99.90;;;;;;5029987;28;20048;-72
2022/06/05 01:40:07;;;;;;;15.88;8.27;;;13.40;99.90;;;;;;5019982;28;20020;-72
2022/06/05 01:42:51;;;;;;;14.55;8.85;;;13.40;99.90;;;;;;5028162;28;20025;-72
2022/06/05 01:45:39;;;;;;;19.30;9.88;;;13.30;99.90;;;;;;5035365;28;20061;-73
2022/06/05 01:48:09;;;;;;;16.55;9.38;;;13.30;99.90;;;;;;5010933;28;20120;-72
2022/06/05 01:50:51;;;;;;;12.00;7.60;;;13.30;99.90;;;;;;5023645;28;20492;-72
2022/06/05 01:53:46;;;;;;;;;;;13.30;99.90;;;;;;5038898;28;20108;-72
2022/06/05 01:56:17;;;;;;;19.90;9.05;;;13.30;99.90;;;;;;5004791;28;19967;-72
2022/06/05 01:58:47;;;;;;;16.20;8.23;;;13.30;99.90;;;;;;5020198;28;20036;-72
2022/06/05 02:01:18;;;;;;;19.05;8.75;;;13.30;99.90;;;;;;5008937;28;20041;-72
2022/06/05 02:03:48;;;;;;;19.08;9.30;;;13.30;99.90;;;;;;5023343;28;20105;-73
2022/06/05 02:06:20;;;;;;;19.08;9.48;;;13.40;99.90;;;;;;5025341;28;20033;-72
2022/06/05 02:08:51;;;;;;;16.23;9.32;;;13.40;99.90;;;;;;5023791;28;20033;-72
2022/06/05 02:11:22;;;;;;;18.67;9.73;;;13.40;99.90;;;;;;5032755;28;20033;-73
2022/06/05 02:13:53;;;;;;;17.77;9.38;;;13.40;99.90;;;;;;5029261;28;20041;-72
2022/06/05 02:16:19;;;;;;;20.75;10.73;;;13.40;99.90;;;;;;5030222;28;20025;-72
2022/06/05 02:18:45;;;;;;;19.08;10.63;;;13.40;99.90;;;;;;5024687;28;20125;-72
2022/06/05 02:21:11;;;;;;;19.52;11.25;;;13.40;99.90;;;;;;5025442;28;20464;-72
2022/06/05 02:23:39;;;;;;;24.77;10.85;;;13.40;99.90;;;;;;5037929;28;20045;-72
2022/06/05 02:26:08;;;;;;;21.95;10.10;;;13.40;99.90;;;;;;5026249;28;20024;-72
2022/06/05 02:28:34;;;;;;;20.83;11.45;;;13.40;99.90;;;;;;5036040;28;20064;-72
2022/06/05 02:31:06;;;;;;;23.33;12.05;;;13.40;99.90;;;;;;5033184;28;20395;-72
2022/06/05 02:34:06;;;;;;;20.30;10.90;;;13.40;99.90;;;;;;5013028;28;20389;-72
2022/06/05 02:36:49;;;;;;;18.30;10.63;;;13.40;99.90;;;;;;5020656;28;20493;-72
2022/06/05 02:39:33;;;;;;;23.58;12.10;;;13.40;99.90;;;;;;5014362;28;20036;-72
2022/06/05 02:42:34;;;;;;;22.00;10.90;;;13.40;99.90;;;;;;5020802;28;20025;-72
2022/06/05 02:45:09;;;;;;;19.60;10.85;;;13.40;99.90;;;;;;4979412;28;20568;-73
2022/06/05 02:47:43;;;;;;;23.73;11.75;;;13.40;99.90;;;;;;5018660;28;20047;-72
2022/06/05 02:50:21;;;;;;;22.20;11.23;;;13.40;99.90;;;;;;5031527;28;20499;-72
2022/06/05 02:52:49;;;;;;;25.55;12.10;;;13.50;99.90;;;;;;5046402;28;20041;-72
2022/06/05 02:55:21;;;;;;;23.20;11.80;;;13.50;99.90;;;;;;5023475;28;20695;-72
2022/06/05 02:57:47;;;;;;;23.65;12.27;;;13.50;99.90;;;;;;5044615;28;20133;-72
2022/06/05 03:00:16;;;;;;;25.65;11.85;;;13.50;99.90;;;;;;5033654;28;20033;-72
2022/06/05 03:05:26;;;;;;;29.83;14.07;;;13.50;99.90;;;;;;5029732;28;20243;-72
2022/06/05 03:07:52;;;;;;;33.65;14.90;;;13.50;99.90;;;;;;5034724;28;20033;-72
2022/06/05 03:10:18;;;;;;;32.20;13.85;;;13.60;99.90;;;;;;5031097;28;20068;-72
2022/06/05 03:12:45;;;;;;;32.40;15.60;;;13.60;99.90;;;;;;5040272;28;20037;-72
2022/06/05 03:15:11;;;;;;;34.33;15.32;;;13.60;99.90;;;;;;5041099;28;20025;-72
2022/06/05 03:17:37;;;;;;;28.17;14.70;;;13.50;99.90;;;;;;5045821;28;20076;-73
2022/06/05 03:20:04;;;;;;;36.17;14.07;;;13.50;99.90;;;;;;5042371;28;20487;-72
2022/06/05 03:22:30;;;;;;;39.15;14.95;;;13.50;99.90;;;;;;5045178;28;20075;-73
2022/06/05 03:24:55;;;;;;;39.85;16.55;;;13.50;99.90;;;;;;5032900;28;20084;-73
2022/06/05 03:27:21;;;;;;;41.28;17.13;;;13.40;99.90;;;;;;5033455;28;24076;-72
2022/06/05 03:29:47;;;;;;;38.65;16.90;;;13.50;99.90;;;;;;5041200;28;20033;-72
2022/06/05 03:32:13;;;;;;;41.13;17.60;;;13.50;99.90;;;;;;5046263;28;20065;-72
2022/06/05 03:34:39;;;;;;;39.97;16.63;;;13.50;99.90;;;;;;5029967;28;20388;-72
2022/06/05 03:37:05;;;;;;;39.28;17.70;;;13.50;99.90;;;;;;5021638;28;20661;-72
2022/06/05 03:39:32;;;;;;;53.95;19.33;;;13.50;99.90;;;;;;5026872;28;20025;-72
2022/06/05 03:41:57;;;;;;;42.70;18.95;;;13.50;99.90;;;;;;5038660;28;20136;-72
2022/06/05 03:44:23;;;;;;;41.85;17.92;;;13.50;99.90;;;;;;5026941;28;20117;-72
2022/06/05 03:46:49;;;;;;;53.97;20.80;;;13.50;99.90;;;;;;5030372;28;20564;-73
2022/06/05 03:49:14;;;;;;;55.00;19.35;;;13.40;99.90;;;;;;5028791;28;20029;-72
2022/06/05 03:51:40;;;;;;;48.58;19.98;;;13.50;99.90;;;;;;5030885;28;20532;-73
2022/06/05 03:54:06;;;;;;;56.38;25.05;;;13.40;99.90;;;;;;5038154;28;20028;-72
2022/06/05 03:56:31;;;;;;;45.92;20.65;;;13.40;99.90;;;;;;5037221;28;20116;-73
2022/06/05 03:58:58;;;;;;;53.55;20.13;;;13.50;99.90;;;;;;5030661;28;20433;-73
2022/06/05 04:01:25;;;;;;;43.58;19.33;;;13.40;99.90;;;;;;5010604;28;20021;-72
2022/06/05 04:03:52;;;;;;;47.35;20.08;;;13.40;99.90;;;;;;5031018;28;20104;-73
2022/06/05 04:06:20;;;;;;;53.78;19.42;;;13.40;99.90;;;;;;5025405;28;20029;-72
2022/06/05 04:08:47;;;;;;;51.10;21.02;;;13.50;99.90;;;;;;5027896;28;20037;-72
2022/06/05 04:11:16;;;;;;;50.08;20.42;;;13.50;99.90;;;;;;5024180;28;20504;-72
2022/06/05 04:13:42;;;;;;;57.55;20.73;;;13.50;99.90;;;;;;5034196;28;20400;-72
2022/06/05 04:16:19;;;;;;;49.05;21.83;;;13.50;99.90;;;;;;5025884;28;20033;-72
2022/06/05 04:18:45;;;;;;;54.13;21.77;;;13.50;99.90;;;;;;5029316;28;20053;-72
2022/06/05 04:21:14;;;;;;;48.92;20.95;;;13.50;99.90;;;;;;5029603;28;20038;-73
2022/06/05 04:23:40;;;;;;;46.88;20.02;;;13.50;99.90;;;;;;5034021;28;20677;-73
2022/06/05 04:26:09;;;;;;;57.13;20.80;;;13.50;99.90;;;;;;5033387;28;20109;-73
2022/06/05 04:28:35;;;;;;;48.40;21.35;;;13.50;99.90;;;;;;5022291;28;20121;-74
2022/06/05 04:31:01;;;;;;;59.55;23.42;;;13.50;99.90;;;;;;5028616;28;20180;-72
2022/06/05 04:33:26;;;;;;;48.70;20.02;;;13.50;99.90;;;;;;5039083;28;20116;-73
2022/06/05 04:35:52;;;;;;;52.20;21.65;;;13.50;99.90;;;;;;5021781;28;20033;-73
2022/06/05 04:38:18;;;;;;;51.28;19.58;;;13.60;99.90;;;;;;5027049;28;20440;-73
2022/06/05 04:40:44;;;;;;;42.50;18.90;;;13.50;99.90;;;;;;5011989;28;20031;-73
2022/06/05 04:43:09;;;;;;;44.05;20.38;;;13.50;99.90;;;;;;5041953;28;20449;-73
2022/06/05 04:45:35;;;;;;;55.05;22.35;;;13.60;99.90;;;;;;5036150;28;20048;-73
2022/06/05 04:48:01;;;;;;;46.88;22.13;;;13.60;99.90;;;;;;5038404;28;20055;-73
2022/06/05 04:50:27;;;;;;;51.08;20.23;;;13.50;99.90;;;;;;5034469;28;20107;-73
2022/06/05 04:52:52;;;;;;;52.65;20.63;;;13.50;99.90;;;;;;5032477;28;20033;-73
2022/06/05 04:55:18;;;;;;;57.42;22.73;;;13.50;99.90;;;;;;5041672;28;20946;-73
2022/06/05 04:57:44;;;;;;;46.92;21.85;;;13.50;99.90;;;;;;5023803;28;20029;-73
2022/06/05 05:00:11;;;;;;;55.97;22.48;;;13.60;99.90;;;;;;5028478;28;20034;-73
2022/06/05 05:02:37;;;;;;;45.53;21.35;;;13.50;99.90;;;;;;5027203;28;20120;-73
2022/06/05 05:05:04;;;;;;;59.58;22.08;;;13.60;99.90;;;;;;5025526;28;20030;-71
2022/06/05 05:07:30;;;;;;;58.90;22.50;;;13.50;99.90;;;;;;5018935;28;20119;-73
2022/06/05 05:09:55;;;;;;;38.10;20.25;;;13.60;99.90;;;;;;5023242;28;20033;-73
2022/06/05 05:12:21;;;;;;;43.28;19.83;;;13.60;99.90;;;;;;5023927;28;20041;-73
2022/06/05 05:14:47;;;;;;;58.70;21.15;;;13.60;99.90;;;;;;5024662;28;20101;-73
2022/06/05 05:17:12;;;;;;;50.05;22.42;;;13.60;99.90;;;;;;5028746;28;20053;-73
2022/06/05 05:19:38;;;;;;;53.63;20.42;;;13.70;99.90;;;;;;5034673;28;20036;-73
2022/06/05 05:22:04;;;;;;;43.80;19.45;;;13.70;99.90;;;;;;5034902;28;20169;-73
2022/06/05 05:24:29;;;;;;;47.92;19.90;;;13.70;99.90;;;;;;5036368;28;20036;-73
2022/06/05 05:26:55;;;;;;;56.22;21.40;;;13.70;99.90;;;;;;5029534;28;20065;-73
2022/06/05 05:29:22;;;;;;;51.35;21.02;;;13.70;99.90;;;;;;5030938;28;20029;-73
2022/06/05 05:31:47;;;;;;;50.38;20.48;;;13.70;99.90;;;;;;5040973;28;20051;-73
2022/06/05 05:34:14;;;;;;;54.45;21.40;;;13.70;99.90;;;;;;5038042;28;20028;-73
2022/06/05 05:36:40;;;;;;;44.70;21.42;;;13.70;99.90;;;;;;5041064;28;20021;-73
2022/06/05 05:42:05;;;;;;;58.53;22.10;;;13.80;99.90;;;;;;5024285;28;20033;-73
2022/06/05 05:44:40;;;;;;;57.73;22.80;;;13.80;99.90;;;;;;5027633;28;20037;-73
2022/06/05 05:47:11;;;;;;;63.92;23.17;;;13.80;99.90;;;;;;5021909;28;20036;-73
2022/06/05 05:49:37;;;;;;;54.13;23.55;;;13.90;99.90;;;;;;5038987;28;20048;-73
2022/06/05 05:52:04;;;;;;;54.30;21.67;;;13.90;99.90;;;;;;5020783;28;20037;-73
2022/06/05 05:54:29;;;;;;;56.42;21.85;;;14.00;99.90;;;;;;5036994;28;20138;-73
2022/06/05 05:56:55;;;;;;;47.88;20.55;;;14.00;99.90;;;;;;5027189;28;20415;-73
2022/06/05 05:59:21;;;;;;;43.78;20.67;;;14.10;99.90;;;;;;5024971;28;20555;-74
2022/06/05 06:01:47;;;;;;;52.92;21.25;;;14.20;99.90;;;;;;5021050;28;20060;-73
2022/06/05 06:04:13;;;;;;;50.78;20.75;;;14.30;99.90;;;;;;5026045;28;20025;-73
2022/06/05 06:06:42;;;;;;;53.60;21.95;;;14.20;99.90;;;;;;5030959;28;20056;-73
2022/06/05 06:09:08;;;;;;;61.55;22.75;;;14.10;99.90;;;;;;5009874;28;20592;-73
2022/06/05 06:11:33;;;;;;;64.50;23.42;;;14.10;99.90;;;;;;5032640;28;20143;-73
2022/06/05 06:13:59;;;;;;;55.38;22.55;;;14.10;99.90;;;;;;5032816;28;20035;-73
2022/06/05 06:16:28;;;;;;;53.22;21.30;;;14.10;99.90;;;;;;5015729;28;20036;-73
2022/06/05 06:18:55;;;;;;;51.20;22.17;;;14.20;99.90;;;;;;5015227;28;20052;-73
2022/06/05 06:21:22;;;;;;;55.70;22.08;;;14.20;99.90;;;;;;5020367;28;20064;-73
2022/06/05 06:23:47;;;;;;;56.40;22.05;;;14.20;99.90;;;;;;5022640;28;20091;-74
2022/06/05 06:26:13;;;;;;;62.85;24.33;;;14.20;99.90;;;;;;5030170;28;20041;-73
2022/06/05 06:28:39;;;;;;;63.22;22.13;;;14.10;99.90;;;;;;5020612;28;20283;-73
2022/06/05 06:31:10;;;;;;;57.85;22.27;;;14.10;99.90;;;;;;5020672;28;20051;-73
2022/06/05 06:33:37;;;;;;;62.33;22.58;;;14.10;99.90;;;;;;5027307;28;20021;-73
2022/06/05 06:36:05;;;;;;;64.65;39.17;;;14.10;99.90;;;;;;5022435;28;20033;-74
2022/06/05 06:38:32;;;;;;;50.95;21.20;;;14.20;99.90;;;;;;5018535;28;20049;-74
2022/06/05 06:41:07;;;;;;;54.78;22.75;;;14.20;99.90;;;;;;5008263;28;20026;-73
2022/06/05 06:43:33;;;;;;;53.75;22.20;;;14.20;99.90;;;;;;5018903;28;20033;-73
2022/06/05 06:46:00;;;;;;;49.63;21.90;;;14.40;99.90;;;;;;5027099;28;20095;-74
2022/06/05 06:48:27;;;;;;;59.05;22.95;;;14.50;99.90;;;;;;5015304;28;20044;-73
2022/06/05 06:50:57;;;;;;;60.75;24.80;;;14.50;99.90;;;;;;5008041;28;20083;-74
2022/06/05 06:53:23;;;;;;;54.95;22.17;;;14.50;99.90;;;;;;5002506;28;20301;-73
2022/06/05 06:55:50;;;;;;;51.20;22.33;;;14.70;99.90;;;;;;4999603;28;21531;-73
2022/06/05 06:58:16;;;;;;;58.28;23.25;;;14.70;99.90;;;;;;5003796;28;20108;-73
2022/06/05 07:00:42;;;;;;;55.13;22.52;;;14.80;99.90;;;;;;5005041;28;20495;-73
2022/06/05 07:03:07;;;;;;;64.80;23.48;;;14.80;99.90;;;;;;5003880;28;20029;-72
2022/06/05 07:05:33;;;;;;;59.83;22.50;;;14.90;99.90;;;;;;5014846;28;20038;-73
2022/06/05 07:07:59;;;;;;;62.40;24.10;;;14.90;99.90;;;;;;5018961;28;20033;-73
2022/06/05 07:10:25;;;;;;;58.38;23.85;;;15.00;99.90;;;;;;5005756;28;20040;-73
2022/06/05 07:12:51;;;;;;;57.70;25.73;;;15.10;99.90;;;;;;5022248;28;20032;-72
2022/06/05 07:15:17;;;;;;;54.50;24.30;;;15.10;99.90;;;;;;5016811;28;20026;-73
2022/06/05 07:17:43;;;;;;;52.85;21.73;;;15.10;99.90;;;;;;5019546;28;20467;-73
2022/06/05 07:20:09;;;;;;;54.33;21.17;;;15.20;99.90;;;;;;5020154;28;20075;-72
2022/06/05 07:22:35;;;;;;;58.15;23.85;;;15.20;99.90;;;;;;5029254;28;20029;-73
2022/06/05 07:25:01;;;;;;;49.22;21.60;;;15.30;99.90;;;;;;5037702;28;20033;-73
2022/06/05 07:27:28;;;;;;;51.58;23.35;;;15.30;99.90;;;;;;5029163;28;20438;-73
2022/06/05 07:29:54;;;;;;;91.45;46.85;;;15.30;99.90;;;;;;5014167;28;20029;-73
2022/06/05 07:32:20;;;;;;;53.25;23.20;;;15.30;99.90;;;;;;5009495;28;20133;-73
2022/06/05 07:34:47;;;;;;;51.15;22.42;;;15.30;99.90;;;;;;5005279;28;20040;-73
2022/06/05 07:37:15;;;;;;;58.20;23.95;;;15.30;99.90;;;;;;5019288;28;20037;-73
2022/06/05 07:39:43;;;;;;;63.40;23.25;;;15.30;99.90;;;;;;5005246;28;20049;-73
2022/06/05 07:42:09;;;;;;;51.58;22.20;;;15.50;99.90;;;;;;5000921;28;20111;-73
2022/06/05 07:44:38;;;;;;;49.72;24.30;;;15.60;99.90;;;;;;4999791;28;20127;-73
2022/06/05 07:47:06;;;;;;;59.70;22.80;;;15.60;99.90;;;;;;5026177;28;20032;-73
2022/06/05 07:49:34;;;;;;;51.75;22.83;;;15.60;99.90;;;;;;5040894;28;20504;-73
2022/06/05 07:54:45;;;;;;;45.85;21.58;;;15.70;99.90;;;;;;5033944;28;20043;-73
2022/06/05 07:57:13;;;;;;;49.90;22.15;;;15.70;99.90;;;;;;5034902;28;20427;-73
2022/06/05 07:59:45;;;;;;;54.10;22.92;;;15.70;99.90;;;;;;5030128;28;20037;-73
2022/06/05 08:02:14;;;;;;;46.40;21.27;;;15.70;99.90;;;;;;5036236;28;20036;-72
2022/06/05 08:04:42;;;;;;;49.83;21.00;;;15.70;99.90;;;;;;5007396;28;20340;-73
2022/06/05 08:07:10;;;;;;;49.10;21.65;;;15.70;99.90;;;;;;5004950;28;20525;-73
2022/06/05 08:09:38;;;;;;;49.35;21.10;;;15.70;99.90;;;;;;4998692;28;20033;-72
2022/06/05 08:12:05;;;;;;;59.40;22.90;;;15.80;99.90;;;;;;5007155;28;20132;-73
2022/06/05 08:14:34;;;;;;;44.80;21.17;;;15.90;99.90;;;;;;5014409;28;20118;-73
2022/06/05 08:17:00;;;;;;;45.92;21.73;;;15.90;99.90;;;;;;4999567;28;20057;-73
2022/06/05 08:19:26;;;;;;;50.30;22.48;;;15.80;99.90;;;;;;5000184;28;20135;-73
2022/06/05 08:21:53;;;;;;;54.53;22.80;;;15.80;99.90;;;;;;5003140;28;20404;-73
2022/06/05 08:24:19;;;;;;;50.05;22.30;;;15.80;99.90;;;;;;5004716;28;20032;-73
2022/06/05 08:26:45;;;;;;;50.40;23.38;;;15.70;99.90;;;;;;5001291;28;20033;-73
2022/06/05 08:29:11;;;;;;;43.50;21.17;;;15.70;99.90;;;;;;5001410;28;20041;-73
2022/06/05 08:31:37;;;;;;;50.50;21.35;;;15.70;99.90;;;;;;4997534;28;20041;-73
2022/06/05 08:34:03;;;;;;;47.70;23.13;;;15.70;99.90;;;;;;5000306;28;20036;-73
2022/06/05 08:36:29;;;;;;;45.30;21.35;;;15.70;99.90;;;;;;4999565;28;20033;-73
2022/06/05 08:41:53;;;;;;;49.80;22.38;;;15.80;99.90;;;;;;5011512;28;20087;-73
2022/06/05 08:44:40;;;;;;;42.92;21.35;;;15.80;99.90;;;;;;5008641;28;20076;-73
2022/06/05 08:47:26;;;;;;;44.55;20.33;;;15.80;99.90;;;;;;5005432;28;20034;-72
2022/06/05 08:50:13;;;;;;;45.15;22.08;;;15.80;99.90;;;;;;5020361;28;20036;-73
2022/06/05 08:52:48;;;;;;;43.28;21.48;;;15.80;99.90;;;;;;5008233;28;20142;-72
2022/06/05 08:55:32;;;;;;;44.78;21.83;;;15.80;99.90;;;;;;5002295;28;20041;-72
2022/06/05 08:58:05;;;;;;;44.50;23.10;;;15.70;99.90;;;;;;5023573;28;20030;-73
2022/06/05 09:01:01;;;;;;;46.08;21.40;;;15.70;99.90;;;;;;5025064;28;20032;-73
2022/06/05 09:03:45;;;;;;;49.70;22.55;;;15.90;99.90;;;;;;5039790;28;20021;-73
2022/06/05 09:06:25;;;;;;;45.42;23.35;;;16.00;99.90;;;;;;5010064;28;20029;-74
2022/06/05 09:08:55;;;;;;;41.55;21.42;;;16.10;99.90;;;;;;4989682;28;20026;-73
2022/06/05 09:11:33;;;;;;;41.20;20.63;;;16.30;99.90;;;;;;4981130;28;20042;-73
2022/06/05 09:14:20;;;;;;;40.83;20.52;;;16.30;99.90;;;;;;4992667;28;20351;-73
2022/06/05 09:16:51;;;;;;;40.80;20.27;;;16.30;99.90;;;;;;4999487;28;20111;-74
2022/06/05 09:19:22;;;;;;;42.83;21.77;;;16.30;99.90;;;;;;5016943;28;20404;-73
2022/06/05 09:21:54;;;;;;;;;;;16.40;99.90;;;;;;4996647;28;20046;-73
2022/06/05 09:24:30;;;;;;;43.17;19.35;;;16.40;99.90;;;;;;4992661;28;19921;-73
2022/06/05 09:27:17;;;;;;;40.83;19.38;;;16.30;99.90;;;;;;4993816;28;20029;-77
2022/06/05 09:30:08;;;;;;;35.45;19.42;;;16.30;99.90;;;;;;5003389;28;20034;-77
2022/06/05 09:33:01;;;;;;;36.90;19.83;;;16.40;99.90;;;;;;5020731;28;20044;-78
2022/06/05 09:35:35;;;;;;;35.20;18.08;;;16.40;99.90;;;;;;5003497;28;20114;-77
2022/06/05 09:38:07;;;;;;;42.92;19.73;;;16.50;99.90;;;;;;4988190;28;20053;-77
2022/06/05 09:40:47;;;;;;;37.95;20.60;;;16.50;99.90;;;;;;5003804;28;20076;-77
2022/06/05 09:43:30;;;;;;;46.22;20.58;;;16.50;99.90;;;;;;4999788;28;20157;-78
2022/06/05 09:46:16;;;;;;;40.08;19.88;;;16.60;99.90;;;;;;4995532;28;20041;-76
2022/06/05 09:49:03;;;;;;;32.78;19.77;;;16.60;99.90;;;;;;5000900;28;20068;-77
2022/06/05 09:51:29;;;;;;;37.65;20.92;;;16.60;99.90;;;;;;5001414;28;20085;-77
2022/06/05 09:54:28;;;;;;;37.45;20.88;;;16.50;99.90;;;;;;5001970;28;22124;-78
2022/06/05 10:00:00;;;;;;;40.55;21.63;;;16.50;99.90;;;;;;5028861;28;20084;-78
2022/06/05 10:02:27;;;;;;;38.40;21.58;;;16.60;99.90;;;;;;5033978;28;20126;-79
2022/06/05 10:04:53;;;;;;;40.08;21.63;;;16.70;99.90;;;;;;5016205;28;20033;-80
2022/06/05 10:07:28;;;;;;;39.65;21.23;;;16.80;99.90;;;;;;5012230;28;21629;-79
2022/06/05 10:09:54;;;;;;;34.38;20.23;;;16.80;99.90;;;;;;5006223;28;20026;-79
2022/06/05 10:12:25;;;;;;;33.75;19.80;;;16.70;99.90;;;;;;5014584;28;20033;-80
2022/06/05 10:14:54;;;;;;;36.45;21.80;;;16.80;99.90;;;;;;5030074;28;20051;-77
2022/06/05 10:17:38;;;;;;;39.78;21.27;;;16.80;99.90;;;;;;5004527;28;20065;-79
2022/06/05 10:20:12;;;;;;;40.60;21.48;;;17.00;99.90;;;;;;5004099;28;20048;-79
2022/06/05 10:23:02;;;;;;;36.72;20.92;;;17.10;99.90;;;;;;5010697;28;20026;-77
2022/06/05 10:25:35;;;;;;;34.28;18.83;;;17.20;99.90;;;;;;5042199;28;20029;-79
2022/06/05 10:28:24;;;;;;;33.28;19.63;;;17.50;99.90;;;;;;5026989;28;20049;-80
2022/06/05 10:31:12;;;;;;;39.75;20.20;;;17.50;99.90;;;;;;5036264;28;20080;-80
2022/06/05 10:33:41;;;;;;;32.70;18.65;;;17.50;99.90;;;;;;5022452;28;20024;-79
2022/06/05 10:36:18;;;;;;;33.58;18.55;;;17.50;99.90;;;;;;5021171;28;20115;-84
2022/06/05 10:39:09;;;;;;;32.10;19.58;;;17.40;99.90;;;;;;5003713;28;20036;-77
2022/06/05 10:41:44;;;;;;;32.17;19.02;;;17.30;99.90;;;;;;5024996;28;20092;-76
2022/06/05 10:44:26;;;;;;;37.65;20.25;;;17.40;99.90;;;;;;5006442;28;20021;-76
2022/06/05 10:47:06;;;;;;;33.85;19.30;;;17.40;99.90;;;;;;5023322;28;20123;-75
2022/06/05 10:49:54;;;;;;;40.42;20.85;;;17.40;99.90;;;;;;5015006;28;20041;-77
2022/06/05 10:52:34;;;;;;;39.05;20.10;;;17.50;99.90;;;;;;5020486;28;20105;-81
2022/06/05 10:55:06;;;;;;;39.00;20.30;;;17.40;99.90;;;;;;5021865;28;20030;-75
2022/06/05 10:57:36;;;;;;;36.70;20.77;;;17.50;99.90;;;;;;5031339;28;20025;-75
2022/06/05 11:00:02;;;;;;;38.83;20.70;;;17.60;99.90;;;;;;5031676;28;20026;-75
2022/06/05 11:02:54;;;;;;;38.05;20.75;;;17.50;99.90;;;;;;5029807;28;20029;-76
2022/06/05 11:05:42;;;;;;;37.88;21.77;;;17.60;99.90;;;;;;5031959;28;20033;-81
2022/06/05 11:08:16;;;;;;;35.65;20.35;;;17.50;99.90;;;;;;5027184;28;20029;-79
2022/06/05 11:14:33;;;;;;;30.83;19.05;;;17.70;99.90;;;;;;5017868;28;20515;-79
2022/06/05 11:17:08;;;;;;;37.88;21.73;;;17.90;99.90;;;;;;5015620;28;20493;-79
2022/06/05 11:19:45;;;;;;;36.92;21.13;;;18.00;99.90;;;;;;5019419;28;20439;-76
2022/06/05 11:22:14;;;;;;;30.85;18.92;;;17.90;99.90;;;;;;5018002;28;20036;-78
2022/06/05 11:24:45;;;;;;;34.20;20.73;;;18.00;99.90;;;;;;5027823;28;20120;-79
2022/06/05 11:27:33;;;;;;;37.45;21.67;;;17.90;99.90;;;;;;5026902;28;20491;-78
2022/06/05 11:30:11;;;;;;;36.58;22.42;;;17.80;99.90;;;;;;5031208;28;20098;-78
2022/06/05 11:32:58;;;;;;;39.03;20.98;;;17.60;99.90;;;;;;5011639;28;20511;-79
2022/06/05 11:36:07;;;;;;;37.08;20.88;;;17.50;99.90;;;;;;5022749;28;20540;-79
2022/06/05 11:38:57;;;;;;;34.35;21.45;;;17.50;99.90;;;;;;5026474;28;20057;-78
2022/06/05 11:41:43;;;;;;;38.10;18.90;;;17.50;99.90;;;;;;5017036;28;20029;-79
2022/06/05 11:44:23;;;;;;;33.97;20.23;;;17.50;99.90;;;;;;5024745;28;20061;-79
2022/06/05 11:47:07;;;;;;;31.80;18.80;;;17.50;99.90;;;;;;5025045;28;20040;-78
2022/06/05 11:49:39;;;;;;;33.65;20.48;;;17.60;99.90;;;;;;5024494;28;20036;-78
2022/06/05 11:52:36;;;;;;;37.78;21.50;;;17.60;99.90;;;;;;5025071;28;20488;-77
2022/06/05 11:55:04;;;;;;;38.65;20.20;;;17.60;99.90;;;;;;4996846;28;20041;-79
2022/06/05 11:57:48;;;;;;;36.17;20.05;;;17.50;99.90;;;;;;5019147;28;20059;-79
2022/06/05 12:00:16;;;;;;;28.33;18.85;;;17.50;99.90;;;;;;5024296;28;20091;-78
2022/06/05 12:02:59;;;;;;;36.08;20.67;;;17.80;99.90;;;;;;5026666;28;20033;-79
2022/06/05 12:05:36;;;;;;;39.15;22.35;;;18.10;99.90;;;;;;5017593;28;20029;-76
2022/06/05 12:08:10;;;;;;;40.45;21.58;;;18.10;99.90;;;;;;5024409;28;20068;-77
2022/06/05 12:10:51;;;;;;;39.30;22.48;;;18.10;99.90;;;;;;5037714;28;20056;-77
2022/06/05 12:13:33;;;;;;;41.03;21.90;;;18.10;99.90;;;;;;5030579;28;20129;-73
2022/06/05 12:16:07;;;;;;;39.20;22.35;;;18.00;99.90;;;;;;4674136;28;10000567;-75
2022/06/05 12:18:40;;;;;;;38.88;22.02;;;18.00;99.90;;;;;;5024917;28;20045;-75
2022/06/05 12:21:49;;;;;;;35.30;20.92;;;18.00;99.90;;;;;;5018973;28;20025;-77
2022/06/05 12:24:26;;;;;;;39.05;22.77;;;18.20;99.90;;;;;;5021289;28;20033;-73
2022/06/05 12:27:06;;;;;;;31.83;21.17;;;18.60;99.90;;;;;;5026888;28;20029;-74
2022/06/05 12:29:57;;;;;;;33.35;21.35;;;18.90;99.90;;;;;;5034409;28;20060;-72
2022/06/05 12:32:37;;;;;;;29.05;20.27;;;18.90;99.90;;;;;;5022972;28;20060;-73
2022/06/05 12:35:06;;;;;;;33.67;19.80;;;19.20;99.90;;;;;;5025710;28;20128;-72
2022/06/05 12:37:38;;;;;;;30.13;18.83;;;19.30;99.90;;;;;;5011378;28;20030;-73
2022/06/05 12:40:13;;;;;;;30.38;21.02;;;19.40;99.90;;;;;;5007165;28;20018;-73
2022/06/05 12:42:48;;;;;;;28.33;19.08;;;19.50;99.90;;;;;;5021136;28;20036;-72
2022/06/05 12:45:22;;;;;;;31.10;20.30;;;19.50;99.90;;;;;;5023115;28;20033;-72
2022/06/05 12:48:09;;;;;;;35.28;20.80;;;19.30;99.90;;;;;;5037512;28;20043;-75
2022/06/05 12:50:47;;;;;;;33.78;21.35;;;18.90;99.90;;;;;;5032322;28;20040;-76
2022/06/05 12:53:28;;;;;;;32.53;19.98;;;18.80;99.90;;;;;;5015477;28;20125;-76
2022/06/05 12:56:07;;;;;;;30.20;18.90;;;18.90;99.90;;;;;;4998061;28;20034;-75
2022/06/05 12:58:47;;;;;;;32.40;19.40;;;19.00;99.90;;;;;;4983390;28;20041;-75
2022/06/05 13:01:20;;;;;;;33.17;20.92;;;19.10;99.90;;;;;;4998712;28;20036;-75
2022/06/05 13:03:56;;;;;;;33.40;21.58;;;19.10;99.90;;;;;;5007286;28;20595;-76
2022/06/05 13:06:25;;;;;;;33.50;22.17;;;18.90;99.90;;;;;;5011339;28;20044;-75
2022/06/05 13:08:55;;;;;;;52.85;29.60;;;19.20;99.90;;;;;;5009623;28;20718;-74
2022/06/05 13:11:46;;;;;;;38.53;23.60;;;19.30;99.90;;;;;;5013501;28;20421;-76
2022/06/05 13:14:39;;;;;;;39.42;25.00;;;19.60;99.90;;;;;;5015312;28;20389;-76